Time;durP1;ratioP1;P1;durP2;ratioP2;P2;SDS_P1;SDS_P2;PMS_P1;PMS_P2;Temp;Humidity;BMP_temperature;BMP_pressure;BME280_temperature;BME280_humidity;BME280_pressure;Samples;Min_cycle;Max_cycle;Signal;HPM_P1;HPM_P2
2022/06/14 00:03:13;;;;;;;10.40;2.10;;;15.00;1.00;;;;;;5060957;28;20551;-79
2022/06/14 00:05:41;;;;;;;6.87;1.83;;;14.90;1.00;;;;;;5061988;28;20452;-79
2022/06/14 00:08:09;;;;;;;8.10;2.07;;;14.80;1.00;;;;;;5058395;28;22377;-80
2022/06/14 00:10:36;;;;;;;8.70;2.37;;;14.80;1.00;;;;;;5056341;28;20475;-79
2022/06/14 00:13:03;;;;;;;7.20;2.13;;;14.70;1.00;;;;;;5059347;28;20874;-79
2022/06/14 00:15:30;;;;;;;8.23;2.27;;;14.60;1.00;;;;;;5057785;28;20451;-79
2022/06/14 00:17:57;;;;;;;10.83;2.60;;;14.60;1.00;;;;;;5060968;28;20460;-79
2022/06/14 00:20:24;;;;;;;9.00;2.43;;;14.60;1.00;;;;;;5060739;28;21075;-79
2022/06/14 00:22:52;;;;;;;7.73;1.73;;;14.50;1.00;;;;;;5051469;28;20934;-79
2022/06/14 00:25:25;;;;;;;7.00;2.10;;;14.50;1.00;;;;;;5056948;28;20553;-77
2022/06/14 00:27:53;;;;;;;9.37;2.00;;;14.40;1.00;;;;;;5062748;28;20480;-79
2022/06/14 00:30:23;;;;;;;9.60;2.07;;;14.40;1.00;;;;;;5063596;28;20468;-78
2022/06/14 00:32:50;;;;;;;7.90;2.27;;;14.30;1.00;;;;;;5058557;28;21498;-78
2022/06/14 00:35:17;;;;;;;7.93;2.20;;;14.30;1.00;;;;;;5060727;28;21271;-78
2022/06/14 00:37:44;;;;;;;6.23;1.80;;;14.30;1.00;;;;;;5059535;28;20480;-78
2022/06/14 00:40:20;;;;;;;8.37;2.23;;;14.30;1.00;;;;;;5062278;28;20467;-79
2022/06/14 00:42:47;;;;;;;7.73;1.70;;;14.30;1.00;;;;;;5059116;28;20933;-78
2022/06/14 00:46:04;;;;;;;6.70;1.83;;;14.30;1.00;;;;;;5058645;28;20452;-79
2022/06/14 00:48:34;;;;;;;7.13;1.60;;;14.20;1.00;;;;;;4999289;28;20464;-79
2022/06/14 00:51:06;;;;;;;6.07;1.73;;;14.10;1.00;;;;;;5048521;28;21829;-79
2022/06/14 00:53:39;;;;;;;7.07;1.90;;;14.10;1.00;;;;;;5061115;28;20475;-81
2022/06/14 00:56:12;;;;;;;7.50;2.03;;;14.00;1.00;;;;;;5047827;28;20457;-79
2022/06/14 00:58:43;;;;;;;8.40;2.03;;;13.90;1.00;;;;;;5061282;28;20491;-79
2022/06/14 01:01:15;;;;;;;6.97;2.00;;;13.90;1.00;;;;;;5062123;28;20520;-79
2022/06/14 01:03:46;;;;;;;6.10;1.57;;;13.90;1.00;;;;;;5057913;28;20538;-79
2022/06/14 01:06:17;;;;;;;6.17;2.00;;;13.80;1.00;;;;;;5061572;28;20447;-78
2022/06/14 01:08:49;;;;;;;7.30;2.20;;;13.80;1.00;;;;;;5062359;28;20424;-78
2022/06/14 01:11:23;;;;;;;8.87;1.80;;;13.70;1.00;;;;;;5059617;28;20478;-78
2022/06/14 01:13:50;;;;;;;6.87;1.73;;;13.70;1.00;;;;;;5042077;28;20455;-77
2022/06/14 01:16:17;;;;;;;7.80;2.13;;;13.60;1.00;;;;;;5058653;28;20486;-78
2022/06/14 01:18:44;;;;;;;8.33;2.13;;;13.60;1.00;;;;;;5058221;28;20470;-78
2022/06/14 01:21:11;;;;;;;7.40;1.77;;;13.50;1.00;;;;;;5052078;28;20459;-78
2022/06/14 01:23:40;;;;;;;10.00;2.63;;;13.50;1.00;;;;;;5055120;28;20920;-78
2022/06/14 01:26:12;;;;;;;7.80;2.30;;;13.40;1.00;;;;;;5058882;28;20448;-78
2022/06/14 01:28:44;;;;;;;10.90;2.20;;;13.40;1.00;;;;;;5059012;28;20529;-78
2022/06/14 01:31:11;;;;;;;6.80;1.70;;;13.40;1.00;;;;;;5060501;28;20568;-78
2022/06/14 01:33:42;;;;;;;6.93;1.90;;;13.40;1.00;;;;;;5057127;28;20483;-78
2022/06/14 01:36:13;;;;;;;7.90;1.90;;;13.30;1.00;;;;;;5056857;28;20455;-79
2022/06/14 01:38:45;;;;;;;6.90;2.33;;;13.20;1.00;;;;;;5057799;28;20531;-79
2022/06/14 01:41:21;;;;;;;6.83;2.00;;;13.20;1.00;;;;;;5056614;28;20522;-79
2022/06/14 01:44:02;;;;;;;8.13;2.20;;;13.20;1.00;;;;;;5054681;28;20546;-78
2022/06/14 01:46:32;;;;;;;9.30;2.23;;;13.10;1.00;;;;;;5059114;28;20538;-78
2022/06/14 01:52:02;;;;;;;10.70;2.53;;;13.10;1.00;;;;;;5058311;28;20459;-77
2022/06/14 01:54:41;;;;;;;8.97;2.17;;;13.00;1.00;;;;;;5056849;28;20562;-78
2022/06/14 01:57:13;;;;;;;7.27;2.23;;;13.00;1.00;;;;;;5055843;28;20549;-78
2022/06/14 01:59:49;;;;;;;7.70;1.90;;;12.90;1.00;;;;;;5059174;28;20472;-78
2022/06/14 02:02:26;;;;;;;8.13;2.00;;;12.90;1.00;;;;;;5057620;28;20463;-78
2022/06/14 02:05:02;;;;;;;8.30;2.47;;;12.90;1.00;;;;;;5048972;28;20494;-78
2022/06/14 02:07:38;;;;;;;8.20;2.03;;;12.90;1.00;;;;;;5057673;28;20458;-79
2022/06/14 02:10:13;;;;;;;8.40;2.10;;;12.90;1.00;;;;;;5058924;28;20470;-78
2022/06/14 02:12:46;;;;;;;8.63;2.40;;;12.80;1.00;;;;;;5073090;28;20906;-78
2022/06/14 02:15:22;;;;;;;7.70;2.20;;;12.80;1.00;;;;;;5054110;28;20481;-79
2022/06/14 02:17:57;;;;;;;11.03;2.47;;;12.80;1.00;;;;;;5057414;28;20481;-79
2022/06/14 02:20:29;;;;;;;8.27;1.80;;;12.80;1.00;;;;;;5057719;28;20467;-79
2022/06/14 02:23:04;;;;;;;10.50;2.43;;;12.70;1.00;;;;;;5047921;28;20467;-79
2022/06/14 02:25:37;;;;;;;7.23;2.03;;;12.70;1.00;;;;;;5059698;28;20482;-79
2022/06/14 02:28:10;;;;;;;9.10;2.40;;;12.70;1.00;;;;;;5047444;28;20468;-79
2022/06/14 02:30:41;;;;;;;8.80;2.20;;;12.70;1.00;;;;;;5064442;28;20954;-78
2022/06/14 02:33:13;;;;;;;8.40;2.10;;;12.60;1.00;;;;;;5059904;28;20468;-79
2022/06/14 02:35:47;;;;;;;6.47;2.20;;;12.60;1.00;;;;;;5061388;28;20563;-79
2022/06/14 02:38:18;;;;;;;7.77;2.33;;;12.60;1.00;;;;;;5061018;28;20455;-78
2022/06/14 02:40:50;;;;;;;12.50;2.60;;;12.60;1.00;;;;;;5061953;28;20452;-79
2022/06/14 02:43:22;;;;;;;8.33;2.40;;;12.60;1.00;;;;;;5053853;28;20470;-78
2022/06/14 02:45:55;;;;;;;10.73;3.10;;;12.60;1.00;;;;;;5060609;28;20466;-78
2022/06/14 02:48:26;;;;;;;7.93;2.37;;;12.60;1.00;;;;;;5050501;28;20540;-78
2022/06/14 02:50:56;;;;;;;10.33;2.23;;;12.50;1.00;;;;;;5060224;28;20484;-79
2022/06/14 02:53:29;;;;;;;9.77;2.77;;;12.50;1.00;;;;;;5063040;28;20659;-79
2022/06/14 02:56:03;;;;;;;9.30;3.13;;;12.50;1.00;;;;;;5066356;28;20431;-78
2022/06/14 02:58:33;;;;;;;7.70;2.23;;;12.50;1.00;;;;;;5066187;28;20429;-78
2022/06/14 03:01:06;;;;;;;7.30;2.80;;;12.50;1.00;;;;;;5064614;28;20459;-78
2022/06/14 03:03:38;;;;;;;10.20;2.73;;;12.50;1.00;;;;;;5058977;28;20565;-78
2022/06/14 03:06:11;;;;;;;8.43;2.90;;;12.50;1.00;;;;;;5046081;28;20475;-78
2022/06/14 03:08:45;;;;;;;7.87;2.53;;;12.60;1.00;;;;;;5059667;28;20477;-78
2022/06/14 03:11:21;;;;;;;8.57;2.87;;;12.60;1.00;;;;;;5062208;28;20526;-79
2022/06/14 03:13:57;;;;;;;10.83;2.53;;;12.60;1.00;;;;;;5066505;28;20447;-79
2022/06/14 03:16:32;;;;;;;9.90;3.13;;;12.60;1.00;;;;;;5063618;28;20473;-78
2022/06/14 03:19:07;;;;;;;8.83;2.53;;;12.60;1.00;;;;;;5061822;28;20817;-79
2022/06/14 03:21:38;;;;;;;9.00;2.57;;;12.60;1.00;;;;;;5061265;28;20494;-79
2022/06/14 03:24:11;;;;;;;9.93;2.83;;;12.70;1.00;;;;;;5064833;28;20461;-78
2022/06/14 03:26:59;;;;;;;8.77;2.63;;;12.70;1.00;;;;;;5054080;28;20468;-79
2022/06/14 03:29:36;;;;;;;11.97;2.77;;;12.70;1.00;;;;;;5059109;28;21009;-79
2022/06/14 03:32:08;;;;;;;10.90;3.60;;;12.80;1.00;;;;;;5045177;28;20967;-78
2022/06/14 03:34:41;;;;;;;10.40;3.33;;;12.70;1.00;;;;;;5061509;28;20580;-78
2022/06/14 03:37:08;;;;;;;8.77;3.43;;;12.70;1.00;;;;;;5057118;28;20464;-79
2022/06/14 03:39:38;;;;;;;9.27;2.43;;;12.70;1.00;;;;;;5044984;28;20461;-78
2022/06/14 03:42:10;;;;;;;9.83;2.93;;;12.70;1.00;;;;;;5045811;28;20455;-77
2022/06/14 03:44:38;;;;;;;11.10;2.67;;;12.60;1.00;;;;;;5054730;28;20513;-78
2022/06/14 03:47:24;;;;;;;8.30;3.60;;;12.60;1.00;;;;;;5054989;28;20493;-77
2022/06/14 03:49:55;;;;;;;8.10;2.30;;;12.70;1.00;;;;;;5061888;28;20464;-79
2022/06/14 03:52:53;;;;;;;10.80;2.97;;;12.70;1.00;;;;;;5054844;28;20484;-78
2022/06/14 03:55:40;;;;;;;8.23;2.57;;;12.80;1.00;;;;;;5060322;28;20578;-78
2022/06/14 03:58:21;;;;;;;12.33;3.07;;;12.80;1.00;;;;;;5065949;28;20543;-79
2022/06/14 04:00:53;;;;;;;10.03;3.00;;;12.80;1.00;;;;;;5061644;28;20493;-78
2022/06/14 04:03:35;;;;;;;9.60;2.70;;;12.80;1.00;;;;;;5049620;28;20463;-79
2022/06/14 04:06:17;;;;;;;8.57;2.77;;;12.80;1.00;;;;;;5060584;28;21349;-79
2022/06/14 04:08:57;;;;;;;10.50;2.80;;;12.90;1.00;;;;;;5058132;28;20463;-78
2022/06/14 04:11:36;;;;;;;7.80;2.70;;;12.90;1.00;;;;;;5045112;28;21351;-79
2022/06/14 04:14:19;;;;;;;11.93;2.77;;;12.90;1.00;;;;;;5052229;28;20456;-79
2022/06/14 04:16:54;;;;;;;12.10;3.13;;;13.00;1.00;;;;;;5064202;28;20497;-79
2022/06/14 04:19:31;;;;;;;12.27;3.47;;;13.00;1.00;;;;;;5066016;28;20483;-79
2022/06/14 04:22:05;;;;;;;10.10;3.07;;;13.10;1.00;;;;;;5061384;28;20448;-79
2022/06/14 04:24:37;;;;;;;9.90;3.40;;;13.10;1.00;;;;;;5058169;28;20458;-78
2022/06/14 04:27:11;;;;;;;12.90;3.40;;;13.10;1.00;;;;;;5067291;28;20463;-79
2022/06/14 04:29:47;;;;;;;11.30;3.40;;;13.10;1.00;;;;;;5064518;28;20517;-80
2022/06/14 04:32:19;;;;;;;11.63;3.20;;;13.10;1.00;;;;;;5060470;28;20466;-80
2022/06/14 04:34:49;;;;;;;8.10;3.17;;;13.20;1.00;;;;;;5059769;28;20451;-80
2022/06/14 04:37:23;;;;;;;9.93;3.60;;;13.20;1.00;;;;;;5064904;28;20942;-78
2022/06/14 04:39:58;;;;;;;10.40;3.37;;;13.20;1.00;;;;;;5060350;28;20939;-79
2022/06/14 04:42:31;;;;;;;10.50;2.77;;;13.20;1.00;;;;;;5055593;28;20464;-78
2022/06/14 04:45:08;;;;;;;9.03;2.83;;;13.30;1.00;;;;;;5061440;28;20478;-78
2022/06/14 04:47:41;;;;;;;10.60;4.00;;;13.30;1.00;;;;;;5066526;28;20470;-79
2022/06/14 04:50:15;;;;;;;11.77;3.00;;;13.40;1.00;;;;;;5059660;28;20491;-78
2022/06/14 04:52:47;;;;;;;9.93;3.17;;;13.40;1.00;;;;;;5061143;28;20542;-78
2022/06/14 04:55:19;;;;;;;12.50;2.90;;;13.50;1.00;;;;;;5060435;28;20557;-79
2022/06/14 04:57:50;;;;;;;13.87;3.30;;;13.50;1.00;;;;;;5059501;28;20487;-79
2022/06/14 05:00:22;;;;;;;7.60;2.90;;;13.50;1.00;;;;;;5058375;28;20974;-77
2022/06/14 05:02:55;;;;;;;10.70;3.13;;;13.60;1.00;;;;;;5062335;28;20532;-76
2022/06/14 05:05:27;;;;;;;12.87;3.37;;;13.60;1.00;;;;;;5061355;28;20640;-76
2022/06/14 05:07:58;;;;;;;10.37;3.10;;;13.70;1.00;;;;;;5056841;28;20808;-76
2022/06/14 05:10:30;;;;;;;11.33;3.13;;;13.80;1.00;;;;;;5059364;28;20549;-76
2022/06/14 05:13:03;;;;;;;9.87;3.20;;;13.90;1.00;;;;;;5061735;28;20471;-76
2022/06/14 05:15:37;;;;;;;10.23;3.40;;;14.00;1.00;;;;;;5060547;28;20465;-76
2022/06/14 05:18:09;;;;;;;13.53;3.90;;;14.00;1.00;;;;;;5060310;28;20909;-76
2022/06/14 05:20:43;;;;;;;9.43;3.50;;;14.10;1.00;;;;;;5053986;28;20492;-77
2022/06/14 05:23:17;;;;;;;12.10;3.20;;;14.10;1.00;;;;;;5056139;28;20462;-78
2022/06/14 05:25:52;;;;;;;11.30;3.40;;;14.20;1.00;;;;;;5057839;28;20442;-78
2022/06/14 05:28:31;;;;;;;11.20;3.17;;;14.20;1.00;;;;;;5061419;28;20451;-77
2022/06/14 05:31:13;;;;;;;13.30;6.03;;;14.20;1.00;;;;;;5060831;28;20464;-78
2022/06/14 05:33:48;;;;;;;11.20;3.83;;;14.20;1.00;;;;;;5053746;28;20478;-77
2022/06/14 05:36:19;;;;;;;11.80;3.03;;;14.10;1.00;;;;;;5058944;28;20423;-79
2022/06/14 05:38:51;;;;;;;12.80;3.37;;;14.20;1.00;;;;;;5064720;28;22159;-78
2022/06/14 05:41:23;;;;;;;12.93;3.50;;;14.20;1.00;;;;;;5062663;28;20468;-78
2022/06/14 05:43:52;;;;;;;9.00;3.00;;;14.30;1.00;;;;;;5061374;28;20421;-78
2022/06/14 05:46:25;;;;;;;7.93;2.60;;;14.30;1.00;;;;;;5065103;28;20811;-77
2022/06/14 05:48:56;;;;;;;9.20;3.00;;;14.50;1.00;;;;;;5061128;28;20458;-79
2022/06/14 05:51:28;;;;;;;9.53;2.90;;;14.70;1.00;;;;;;5056794;28;20541;-79
2022/06/14 05:54:00;;;;;;;9.70;2.80;;;14.80;1.00;;;;;;5065325;28;20480;-78
2022/06/14 05:56:36;;;;;;;9.33;2.97;;;14.90;1.00;;;;;;5059999;28;20423;-79
2022/06/14 05:59:08;;;;;;;12.10;3.27;;;14.70;1.00;;;;;;5068611;28;20462;-79
2022/06/14 06:01:41;;;;;;;12.47;4.93;;;14.70;1.00;;;;;;5064457;28;20471;-78
2022/06/14 06:04:16;;;;;;;8.00;2.87;;;14.70;1.00;;;;;;5060933;28;20506;-79
2022/06/14 06:06:47;;;;;;;12.07;2.90;;;14.60;1.00;;;;;;5062962;28;20578;-79
2022/06/14 06:09:19;;;;;;;13.83;3.53;;;14.50;1.00;;;;;;5063867;28;20483;-80
2022/06/14 06:11:51;;;;;;;9.13;3.57;;;14.60;1.00;;;;;;5062380;28;20495;-80
2022/06/14 06:14:23;;;;;;;12.43;3.20;;;14.60;1.00;;;;;;5060479;28;20570;-79
2022/06/14 06:16:59;;;;;;;12.00;2.57;;;14.70;1.00;;;;;;5061867;28;20448;-79
2022/06/14 06:19:30;;;;;;;9.43;3.50;;;14.70;1.00;;;;;;5057910;28;20543;-77
2022/06/14 06:22:02;;;;;;;10.70;3.70;;;14.70;1.00;;;;;;5060309;28;20493;-77
2022/06/14 06:24:37;;;;;;;11.00;2.90;;;14.70;1.00;;;;;;5048983;28;20542;-76
2022/06/14 06:27:09;;;;;;;10.70;3.20;;;14.90;1.00;;;;;;5055530;28;20454;-81
2022/06/14 06:29:42;;;;;;;11.27;3.73;;;15.10;1.00;;;;;;5075357;28;20420;-80
2022/06/14 06:32:11;;;;;;;11.90;3.60;;;15.30;1.00;;;;;;5059279;28;20512;-80
2022/06/14 06:34:39;;;;;;;10.00;3.10;;;15.40;1.00;;;;;;5063768;28;20544;-80
2022/06/14 06:37:13;;;;;;;9.93;2.70;;;15.40;1.00;;;;;;5067036;28;20539;-80
2022/06/14 06:39:46;;;;;;;11.00;3.00;;;15.30;1.00;;;;;;5061010;28;21538;-80
2022/06/14 06:42:19;;;;;;;9.50;2.83;;;15.30;1.00;;;;;;5059784;28;20880;-81
2022/06/14 06:44:56;;;;;;;9.10;2.90;;;15.20;1.00;;;;;;5062775;28;20455;-81
2022/06/14 06:47:30;;;;;;;12.40;3.20;;;15.20;1.00;;;;;;5063158;28;20527;-81
2022/06/14 06:50:25;;;;;;;10.73;3.30;;;15.30;1.00;;;;;;5060424;28;20478;-81
2022/06/14 06:53:01;;;;;;;12.00;2.70;;;15.30;1.00;;;;;;5029253;28;20478;-81
2022/06/14 06:55:40;;;;;;;8.77;2.07;;;15.30;1.00;;;;;;5065118;28;20416;-81
2022/06/14 06:58:13;;;;;;;7.27;2.20;;;15.50;1.00;;;;;;5062405;28;20463;-81
2022/06/14 07:00:42;;;;;;;13.70;2.30;;;15.70;1.00;;;;;;5063736;28;20459;-79
2022/06/14 07:03:18;;;;;;;14.70;3.00;;;15.80;1.00;;;;;;5063110;28;21241;-81
2022/06/14 07:05:50;;;;;;;10.50;3.27;;;16.00;1.00;;;;;;5063589;28;20490;-81
2022/06/14 07:08:22;;;;;;;11.30;2.83;;;16.30;1.00;;;;;;5067963;28;20916;-79
2022/06/14 07:10:52;;;;;;;13.40;2.60;;;16.50;1.00;;;;;;5066216;28;20432;-80
2022/06/14 07:13:23;;;;;;;11.87;2.80;;;16.60;1.00;;;;;;5066362;28;20442;-79
2022/06/14 07:15:56;;;;;;;8.77;2.37;;;16.70;1.00;;;;;;5065359;28;20451;-80
2022/06/14 07:18:27;;;;;;;12.93;3.10;;;16.90;1.00;;;;;;5068105;28;20607;-80
2022/06/14 07:21:04;;;;;;;10.47;2.90;;;17.00;1.00;;;;;;5065588;28;20464;-80
2022/06/14 07:23:38;;;;;;;12.83;6.67;;;17.00;1.00;;;;;;5063785;28;20450;-80
2022/06/14 07:26:12;;;;;;;9.23;2.77;;;17.10;1.00;;;;;;5062787;28;20551;-79
2022/06/14 07:28:49;;;;;;;10.30;2.23;;;17.20;1.00;;;;;;5063659;28;20464;-80
2022/06/14 07:31:23;;;;;;;10.70;3.00;;;17.50;1.00;;;;;;5065484;28;20463;-80
2022/06/14 07:33:53;;;;;;;8.70;2.33;;;17.50;1.00;;;;;;5062202;28;20472;-80
2022/06/14 07:36:29;;;;;;;12.30;3.10;;;17.40;1.00;;;;;;5066868;28;20451;-80
2022/06/14 07:39:06;;;;;;;11.20;3.30;;;17.40;1.00;;;;;;5064332;28;20467;-80
2022/06/14 07:41:41;;;;;;;13.67;2.70;;;17.40;1.00;;;;;;5064544;28;20452;-79
2022/06/14 07:44:18;;;;;;;10.40;2.77;;;17.40;1.00;;;;;;5065235;28;20469;-80
2022/06/14 07:46:57;;;;;;;8.33;2.33;;;17.50;1.00;;;;;;5060965;28;20480;-80
2022/06/14 07:49:33;;;;;;;9.60;2.50;;;17.60;1.00;;;;;;5063312;28;20422;-81
2022/06/14 07:52:08;;;;;;;8.13;2.47;;;17.60;1.00;;;;;;5060771;28;20248;-80
2022/06/14 07:54:41;;;;;;;9.53;2.60;;;17.80;1.00;;;;;;5066267;28;20469;-81
2022/06/14 07:57:11;;;;;;;10.10;2.77;;;17.80;1.00;;;;;;5066777;28;20458;-81
2022/06/14 07:59:42;;;;;;;7.13;1.90;;;17.80;1.00;;;;;;5067044;28;20468;-77
2022/06/14 08:02:18;;;;;;;10.00;3.07;;;17.80;1.00;;;;;;5063635;28;21285;-75
2022/06/14 08:04:52;;;;;;;11.80;3.00;;;18.00;1.00;;;;;;5063924;28;20937;-75
2022/06/14 08:07:21;;;;;;;9.40;2.40;;;18.00;1.00;;;;;;5061273;28;20471;-75
2022/06/14 08:09:53;;;;;;;10.23;2.80;;;18.30;1.00;;;;;;5046754;28;21042;-75
2022/06/14 08:12:23;;;;;;;8.57;2.30;;;18.60;1.00;;;;;;5062660;28;20553;-75
2022/06/14 08:14:57;;;;;;;8.80;2.63;;;18.70;1.00;;;;;;5063668;28;20486;-78
2022/06/14 08:17:32;;;;;;;11.47;3.20;;;18.50;1.00;;;;;;5063925;28;20455;-75
2022/06/14 08:20:07;;;;;;;9.43;3.47;;;18.40;1.00;;;;;;5064715;28;20483;-75
2022/06/14 08:22:38;;;;;;;24.53;15.13;;;18.40;1.00;;;;;;5061556;28;20524;-74
2022/06/14 08:25:10;;;;;;;10.47;2.63;;;18.50;1.00;;;;;;5062533;28;20440;-76
2022/06/14 08:27:42;;;;;;;10.83;2.67;;;18.70;1.00;;;;;;5059042;28;20443;-77
2022/06/14 08:30:14;;;;;;;7.93;2.57;;;18.60;1.00;;;;;;5065662;28;20880;-76
2022/06/14 08:32:50;;;;;;;6.40;2.40;;;18.70;1.00;;;;;;5063419;28;20444;-76
2022/06/14 08:35:23;;;;;;;9.10;2.30;;;18.50;1.00;;;;;;5064589;28;21340;-76
2022/06/14 08:37:55;;;;;;;7.23;1.70;;;18.60;1.00;;;;;;5054376;28;20884;-75
2022/06/14 08:40:46;;;;;;;8.13;2.07;;;18.70;1.00;;;;;;5062253;28;20603;-76
2022/06/14 08:43:16;;;;;;;6.93;1.60;;;18.90;1.00;;;;;;5061930;28;20805;-75
2022/06/14 08:45:55;;;;;;;6.43;2.13;;;18.70;1.00;;;;;;5063659;28;20463;-75
2022/06/14 08:48:39;;;;;;;8.30;2.30;;;18.70;1.00;;;;;;5063038;28;20475;-76
2022/06/14 08:51:13;;;;;;;7.10;2.00;;;18.70;1.00;;;;;;5059922;28;20532;-75
2022/06/14 08:54:25;;;;;;;12.40;2.90;;;19.00;1.00;;;;;;5064802;28;20450;-76
2022/06/14 08:57:04;;;;;;;9.60;2.10;;;19.30;1.00;;;;;;5046654;28;20526;-76
2022/06/14 09:00:11;;;;;;;6.43;1.93;;;19.60;1.00;;;;;;5057974;28;21003;-76
2022/06/14 09:03:15;;;;;;;8.90;2.00;;;19.50;1.00;;;;;;5050587;28;20809;-74
2022/06/14 09:06:00;;;;;;;6.07;1.50;;;19.60;1.00;;;;;;5051847;28;20462;-76
2022/06/14 09:08:57;;;;;;;6.47;1.90;;;19.40;1.00;;;;;;5059086;28;20476;-76
2022/06/14 09:11:57;;;;;;;6.53;1.60;;;19.60;1.00;;;;;;5061690;28;20447;-76
2022/06/14 09:14:59;;;;;;;10.43;3.60;;;19.60;1.00;;;;;;5055948;28;20460;-75
2022/06/14 09:17:41;;;;;;;9.73;2.07;;;19.40;1.00;;;;;;5057991;28;20844;-74
2022/06/14 09:20:18;;;;;;;5.50;1.43;;;19.30;1.00;;;;;;5057678;28;20482;-75
2022/06/14 09:22:58;;;;;;;9.40;2.33;;;19.20;1.00;;;;;;5059077;28;20456;-75
2022/06/14 09:25:45;;;;;;;9.20;1.87;;;19.40;1.00;;;;;;5058603;28;20465;-74
2022/06/14 09:28:34;;;;;;;8.90;2.67;;;19.90;1.00;;;;;;5060996;28;20467;-74
2022/06/14 09:31:22;;;;;;;6.43;1.90;;;20.70;1.00;;;;;;5062981;28;20935;-77
2022/06/14 09:34:29;;;;;;;7.37;1.47;;;21.20;1.00;;;;;;5049543;28;20511;-76
2022/06/14 09:37:30;;;;;;;7.27;1.60;;;21.20;1.00;;;;;;5056911;28;20449;-77
2022/06/14 09:40:25;;;;;;;7.03;1.80;;;21.00;1.00;;;;;;5060413;28;20460;-75
2022/06/14 09:43:21;;;;;;;5.60;1.13;;;21.00;1.00;;;;;;5053807;28;20469;-74
2022/06/14 09:46:22;;;;;;;7.37;1.67;;;20.80;1.00;;;;;;5061193;28;20471;-75
2022/06/14 09:49:33;;;;;;;8.90;1.80;;;20.70;1.00;;;;;;5050654;28;20828;-75
2022/06/14 09:52:23;;;;;;;6.50;1.33;;;20.50;1.00;;;;;;5060947;28;20452;-75
2022/06/14 09:55:39;;;;;;;8.67;2.13;;;20.00;1.00;;;;;;5056337;28;20943;-75
2022/06/14 09:58:36;;;;;;;7.40;1.87;;;19.70;1.00;;;;;;5061345;28;20857;-76
2022/06/14 10:01:15;;;;;;;9.53;2.20;;;19.50;1.00;;;;;;5057087;28;20467;-76
2022/06/14 10:04:08;;;;;;;5.77;1.50;;;19.40;1.00;;;;;;5071666;28;20459;-77
2022/06/14 10:06:53;;;;;;;7.10;2.10;;;19.40;1.00;;;;;;5063053;28;20488;-76
2022/06/14 10:09:54;;;;;;;6.93;1.67;;;19.40;1.00;;;;;;5061436;28;20881;-76
2022/06/14 10:13:14;;;;;;;8.37;2.00;;;19.20;1.00;;;;;;5060514;28;20467;-77
2022/06/14 10:15:51;;;;;;;6.23;2.17;;;19.10;1.00;;;;;;5019273;28;20568;-77
2022/06/14 10:18:59;;;;;;;9.07;1.83;;;19.10;1.00;;;;;;5050943;28;20505;-77
2022/06/14 10:21:33;;;;;;;6.60;2.57;;;19.20;1.00;;;;;;5049733;28;20463;-77
2022/06/14 10:24:10;;;;;;;8.37;2.07;;;19.40;1.00;;;;;;5060389;28;20774;-77
2022/06/14 10:30:19;;;;;;;7.50;1.93;;;19.80;1.00;;;;;;5062875;28;20468;-79
2022/06/14 10:33:12;;;;;;;8.80;2.27;;;20.30;1.00;;;;;;5041068;28;20455;-77
2022/06/14 10:35:50;;;;;;;5.90;1.60;;;20.80;1.00;;;;;;5061041;28;20459;-78
2022/06/14 10:38:42;;;;;;;7.05;1.95;;;22.60;1.00;;;;;;5065232;28;20432;-76
2022/06/14 10:41:23;;;;;;;6.93;1.70;;;24.30;1.00;;;;;;5059603;28;20314;-77
2022/06/14 10:43:57;;;;;;;11.10;2.33;;;24.10;1.00;;;;;;5062962;28;20447;-76
2022/06/14 10:46:28;;;;;;;8.07;2.03;;;23.70;1.00;;;;;;5070373;28;20488;-75
2022/06/14 10:49:24;;;;;;;7.90;2.40;;;23.10;1.00;;;;;;5064081;28;20539;-76
2022/06/14 10:52:28;;;;;;;8.03;2.27;;;23.20;1.00;;;;;;5065538;28;20974;-77
2022/06/14 10:55:11;;;;;;;6.43;1.97;;;23.30;1.00;;;;;;5068102;28;20481;-77
2022/06/14 10:57:51;;;;;;;9.97;2.40;;;23.40;1.00;;;;;;5066060;28;20467;-78
2022/06/14 11:00:25;;;;;;;7.07;1.97;;;23.10;1.00;;;;;;5067609;28;20467;-78
2022/06/14 11:03:43;;;;;;;8.63;3.20;;;22.80;1.00;;;;;;5067283;28;20438;-77
2022/06/14 11:06:35;;;;;;;11.53;2.03;;;22.50;1.00;;;;;;4998367;28;20450;-78
2022/06/14 11:09:12;;;;;;;7.00;1.73;;;22.20;1.00;;;;;;5057787;28;20905;-77
2022/06/14 11:12:08;;;;;;;9.03;3.10;;;22.20;1.00;;;;;;5066291;28;20490;-78
2022/06/14 11:14:43;;;;;;;7.87;2.07;;;22.30;1.00;;;;;;5057378;28;20556;-77
2022/06/14 11:17:36;;;;;;;9.17;2.10;;;23.30;1.00;;;;;;5063538;28;20481;-78
2022/06/14 11:20:18;;;;;;;7.63;2.73;;;24.20;1.00;;;;;;5066274;28;20486;-78
2022/06/14 11:22:54;;;;;;;7.40;2.13;;;23.30;1.00;;;;;;5064761;28;20861;-77
2022/06/14 11:25:34;;;;;;;8.67;2.13;;;22.70;1.00;;;;;;5067612;28;20565;-78
2022/06/14 11:28:11;;;;;;;6.57;2.10;;;22.40;1.00;;;;;;5064824;28;21094;-77
2022/06/14 11:30:49;;;;;;;7.00;2.07;;;22.10;1.00;;;;;;5066821;28;20469;-77
2022/06/14 11:33:28;;;;;;;6.20;1.73;;;21.80;1.00;;;;;;5066791;28;20435;-78
2022/06/14 11:36:19;;;;;;;6.13;2.30;;;21.80;1.00;;;;;;5067942;28;20470;-79
2022/06/14 11:39:05;;;;;;;7.20;2.00;;;22.40;1.00;;;;;;5066376;28;20482;-79
2022/06/14 11:41:36;;;;;;;7.40;2.50;;;23.00;1.00;;;;;;5065463;28;20476;-79
2022/06/14 11:44:16;;;;;;;6.87;2.10;;;22.90;1.00;;;;;;5064637;28;20460;-78
2022/06/14 11:46:50;;;;;;;6.47;2.60;;;22.90;1.00;;;;;;5066883;28;21036;-77
2022/06/14 11:49:24;;;;;;;6.53;2.13;;;23.70;1.00;;;;;;5065941;28;20940;-77
2022/06/14 11:52:01;;;;;;;10.20;2.20;;;25.30;1.00;;;;;;5067457;28;20447;-77
2022/06/14 11:54:40;;;;;;;8.00;2.77;;;25.30;1.00;;;;;;5068901;28;20452;-77
2022/06/14 11:57:15;;;;;;;6.33;1.87;;;25.10;1.00;;;;;;5065422;28;20837;-77
2022/06/14 12:00:09;;;;;;;7.13;1.93;;;24.40;1.00;;;;;;5062316;28;20451;-77
2022/06/14 12:02:54;;;;;;;9.70;4.40;;;23.80;1.00;;;;;;5066838;28;20476;-77
2022/06/14 12:05:31;;;;;;;8.03;3.03;;;23.20;1.00;;;;;;5060933;28;20541;-76
2022/06/14 12:08:06;;;;;;;7.83;2.13;;;23.60;1.00;;;;;;5059542;28;20463;-77
2022/06/14 12:10:47;;;;;;;7.10;2.33;;;25.40;1.00;;;;;;5063274;28;20563;-76
2022/06/14 12:13:32;;;;;;;5.10;1.43;;;27.70;1.00;;;;;;5063751;28;21047;-76
2022/06/14 12:16:08;;;;;;;8.60;1.50;;;27.40;1.00;;;;;;5060051;28;20547;-75
2022/06/14 12:18:37;;;;;;;5.47;2.00;;;28.00;1.00;;;;;;5059559;28;20575;-77
2022/06/14 12:21:11;;;;;;;5.70;1.70;;;28.20;1.00;;;;;;5063425;28;20555;-75
2022/06/14 12:23:43;;;;;;;6.67;1.80;;;27.90;1.00;;;;;;5064488;28;20550;-75
2022/06/14 12:26:34;;;;;;;5.83;1.67;;;26.90;1.00;;;;;;5059425;28;20469;-77
2022/06/14 12:29:09;;;;;;;6.93;1.93;;;25.80;1.00;;;;;;5063091;28;20886;-75
2022/06/14 12:31:57;;;;;;;7.73;2.50;;;25.20;1.00;;;;;;5064386;28;20461;-76
2022/06/14 12:34:30;;;;;;;5.13;1.10;;;24.90;1.00;;;;;;5058591;28;20924;-77
2022/06/14 12:37:08;;;;;;;6.67;2.30;;;25.30;1.00;;;;;;5061802;28;20465;-76
2022/06/14 12:39:40;;;;;;;6.80;2.63;;;26.60;1.00;;;;;;5062321;28;20472;-76
2022/06/14 12:42:21;;;;;;;6.97;1.60;;;29.00;1.00;;;;;;5062796;28;20547;-76
2022/06/14 12:44:55;;;;;;;5.70;1.90;;;30.70;1.00;;;;;;5058958;28;20446;-78
2022/06/14 12:47:28;;;;;;;7.73;1.97;;;31.50;1.00;;;;;;5065483;28;20464;-77
2022/06/14 12:50:10;;;;;;;6.70;1.50;;;30.00;1.00;;;;;;5061728;28;20980;-76
2022/06/14 12:52:45;;;;;;;8.70;1.90;;;28.30;1.00;;;;;;5063894;28;20452;-75
2022/06/14 12:55:18;;;;;;;4.77;1.70;;;26.60;1.00;;;;;;5063932;28;20450;-74
2022/06/14 12:58:00;;;;;;;8.07;1.83;;;25.60;1.00;;;;;;5058026;28;20458;-75
2022/06/14 13:00:35;;;;;;;7.27;2.30;;;24.90;1.00;;;;;;5063164;28;20586;-77
2022/06/14 13:03:15;;;;;;;6.57;1.97;;;24.80;1.00;;;;;;5063154;28;20557;-77
2022/06/14 13:05:46;;;;;;;6.80;2.27;;;24.90;1.00;;;;;;5062263;28;20463;-76
2022/06/14 13:08:26;;;;;;;8.97;2.10;;;26.40;1.00;;;;;;5067740;28;20540;-76
2022/06/14 13:10:58;;;;;;;6.80;2.17;;;27.80;1.00;;;;;;5062061;28;20472;-75
2022/06/14 13:13:58;;;;;;;6.03;1.70;;;28.60;1.00;;;;;;5058467;28;20435;-76
2022/06/14 13:16:39;;;;;;;7.37;2.00;;;28.90;1.00;;;;;;5060997;28;20436;-76
2022/06/14 13:19:15;;;;;;;6.60;1.90;;;28.20;1.00;;;;;;5064769;28;20501;-77
2022/06/14 13:22:11;;;;;;;7.57;2.60;;;27.60;1.00;;;;;;5066760;28;20456;-77
2022/06/14 13:24:52;;;;;;;5.50;1.70;;;26.60;1.00;;;;;;5060752;28;20485;-76
2022/06/14 13:27:29;;;;;;;5.70;1.60;;;27.70;1.00;;;;;;5061401;28;20525;-75
2022/06/14 13:30:07;;;;;;;5.20;1.37;;;28.30;1.00;;;;;;5064734;28;20593;-75
2022/06/14 13:32:49;;;;;;;7.33;2.03;;;29.40;1.00;;;;;;5063132;28;20542;-76
2022/06/14 13:35:32;;;;;;;4.87;1.60;;;29.00;1.00;;;;;;5063198;28;20970;-75
2022/06/14 13:38:06;;;;;;;7.67;1.83;;;28.40;1.00;;;;;;5062268;28;20466;-76
2022/06/14 13:40:41;;;;;;;9.43;2.20;;;28.80;1.00;;;;;;5064201;28;20522;-75
2022/06/14 13:43:23;;;;;;;4.40;1.30;;;28.80;1.00;;;;;;5065413;28;20971;-75
2022/06/14 13:46:00;;;;;;;5.60;1.50;;;29.20;1.00;;;;;;5064326;28;20451;-76
2022/06/14 13:48:36;;;;;;;4.83;1.40;;;30.20;1.00;;;;;;5063514;28;20976;-77
2022/06/14 13:51:14;;;;;;;4.83;1.20;;;28.80;1.00;;;;;;5062729;28;20460;-76
2022/06/14 13:53:49;;;;;;;6.07;2.07;;;27.60;1.00;;;;;;5062650;28;20494;-75